sensor_id;sensor_type;location;lat;lon;timestamp;pressure;altitude;pressure_sealevel;temperature;humidity
6150;BME280;3106;42.670;23.318;2023-07-24T00:01:50;94704.66;;;22.37;79.90
6150;BME280;3106;42.670;23.318;2023-07-24T00:04:18;94696.97;;;22.29;80.80
6150;BME280;3106;42.670;23.318;2023-07-24T00:06:45;94714.53;;;22.24;81.03
6150;BME280;3106;42.670;23.318;2023-07-24T00:09:12;94700.22;;;22.17;82.00
6150;BME280;3106;42.670;23.318;2023-07-24T00:11:38;94699.84;;;22.15;82.32
6150;BME280;3106;42.670;23.318;2023-07-24T00:14:05;94700.28;;;22.13;82.41
6150;BME280;3106;42.670;23.318;2023-07-24T00:16:32;94699.56;;;22.09;82.61
6150;BME280;3106;42.670;23.318;2023-07-24T00:18:59;94693.41;;;22.02;83.37
6150;BME280;3106;42.670;23.318;2023-07-24T00:21:27;94695.84;;;21.93;83.51
6150;BME280;3106;42.670;23.318;2023-07-24T00:23:54;94697.44;;;21.90;83.91
6150;BME280;3106;42.670;23.318;2023-07-24T00:26:23;94697.88;;;21.85;84.24
6150;BME280;3106;42.670;23.318;2023-07-24T00:28:50;94701.44;;;21.79;84.29
6150;BME280;3106;42.670;23.318;2023-07-24T00:31:17;94699.97;;;21.74;85.44
6150;BME280;3106;42.670;23.318;2023-07-24T00:33:43;94696.09;;;21.68;85.52
6150;BME280;3106;42.670;23.318;2023-07-24T00:36:10;94687.84;;;21.79;85.41
6150;BME280;3106;42.670;23.318;2023-07-24T00:38:38;94690.97;;;21.77;84.46
6150;BME280;3106;42.670;23.318;2023-07-24T00:41:05;94691.78;;;21.74;83.83
6150;BME280;3106;42.670;23.318;2023-07-24T00:43:32;94691.06;;;21.70;83.78
6150;BME280;3106;42.670;23.318;2023-07-24T00:45:59;94694.19;;;21.69;83.76
6150;BME280;3106;42.670;23.318;2023-07-24T00:48:26;94688.75;;;21.65;83.95
6150;BME280;3106;42.670;23.318;2023-07-24T00:50:53;94693.84;;;21.63;84.04
6150;BME280;3106;42.670;23.318;2023-07-24T00:53:20;94696.19;;;21.61;83.52
6150;BME280;3106;42.670;23.318;2023-07-24T00:55:49;94687.63;;;21.59;83.47
6150;BME280;3106;42.670;23.318;2023-07-24T00:58:16;94690.78;;;21.58;83.32
6150;BME280;3106;42.670;23.318;2023-07-24T01:00:43;94683.06;;;21.53;83.48
6150;BME280;3106;42.670;23.318;2023-07-24T01:03:10;94685.00;;;21.52;83.53
6150;BME280;3106;42.670;23.318;2023-07-24T01:05:38;94679.97;;;21.51;83.17
6150;BME280;3106;42.670;23.318;2023-07-24T01:08:06;94681.91;;;21.50;83.39
6150;BME280;3106;42.670;23.318;2023-07-24T01:10:33;94673.75;;;21.47;83.54
6150;BME280;3106;42.670;23.318;2023-07-24T01:13:05;94679.25;;;21.43;83.26
6150;BME280;3106;42.670;23.318;2023-07-24T01:15:36;94683.53;;;21.41;83.02
6150;BME280;3106;42.670;23.318;2023-07-24T01:18:09;94680.06;;;21.41;82.46
6150;BME280;3106;42.670;23.318;2023-07-24T01:20:39;94690.97;;;21.37;82.56
6150;BME280;3106;42.670;23.318;2023-07-24T01:23:14;94678.53;;;21.36;82.55
6150;BME280;3106;42.670;23.318;2023-07-24T01:25:53;94665.75;;;21.33;83.37
6150;BME280;3106;42.670;23.318;2023-07-24T01:28:20;94673.09;;;21.36;83.86
6150;BME280;3106;42.670;23.318;2023-07-24T01:30:47;94672.72;;;21.38;83.38
6150;BME280;3106;42.670;23.318;2023-07-24T01:33:14;94669.19;;;21.41;84.25
6150;BME280;3106;42.670;23.318;2023-07-24T01:35:42;94667.63;;;21.40;84.43
6150;BME280;3106;42.670;23.318;2023-07-24T01:38:10;94661.41;;;21.39;84.63
6150;BME280;3106;42.670;23.318;2023-07-24T01:40:39;94661.03;;;21.41;84.40
6150;BME280;3106;42.670;23.318;2023-07-24T01:43:07;94677.72;;;21.39;83.32
6150;BME280;3106;42.670;23.318;2023-07-24T01:45:34;94685.97;;;21.32;83.56
6150;BME280;3106;42.670;23.318;2023-07-24T01:48:03;94696.88;;;21.29;83.78
6150;BME280;3106;42.670;23.318;2023-07-24T01:50:31;94695.47;;;21.14;84.14
6150;BME280;3106;42.670;23.318;2023-07-24T01:52:58;94693.47;;;21.18;83.53
6150;BME280;3106;42.670;23.318;2023-07-24T01:55:25;94678.34;;;21.13;83.92
6150;BME280;3106;42.670;23.318;2023-07-24T01:57:51;94681.06;;;21.13;83.59
6150;BME280;3106;42.670;23.318;2023-07-24T02:00:20;94692.31;;;21.19;83.00
6150;BME280;3106;42.670;23.318;2023-07-24T02:02:48;94693.50;;;21.14;83.15
6150;BME280;3106;42.670;23.318;2023-07-24T02:05:15;94691.22;;;21.09;83.20
6150;BME280;3106;42.670;23.318;2023-07-24T02:07:41;94687.00;;;21.01;83.50
6150;BME280;3106;42.670;23.318;2023-07-24T02:10:09;94689.31;;;21.06;83.47
6150;BME280;3106;42.670;23.318;2023-07-24T02:12:36;94681.56;;;21.05;83.08
6150;BME280;3106;42.670;23.318;2023-07-24T02:15:05;94670.34;;;20.99;83.30
6150;BME280;3106;42.670;23.318;2023-07-24T02:17:33;94674.63;;;20.97;83.14
6150;BME280;3106;42.670;23.318;2023-07-24T02:20:00;94684.38;;;20.91;83.59
6150;BME280;3106;42.670;23.318;2023-07-24T02:22:27;94679.38;;;20.86;83.36
6150;BME280;3106;42.670;23.318;2023-07-24T02:24:53;94676.66;;;20.86;83.45
6150;BME280;3106;42.670;23.318;2023-07-24T02:27:27;94681.72;;;20.84;83.86
6150;BME280;3106;42.670;23.318;2023-07-24T02:29:56;94674.38;;;20.74;84.01
6150;BME280;3106;42.670;23.318;2023-07-24T02:32:23;94665.13;;;20.68;84.42
6150;BME280;3106;42.670;23.318;2023-07-24T02:34:52;94674.47;;;20.63;85.00
6150;BME280;3106;42.670;23.318;2023-07-24T02:37:19;94670.19;;;20.62;85.25
6150;BME280;3106;42.670;23.318;2023-07-24T02:39:46;94667.09;;;20.64;85.00
6150;BME280;3106;42.670;23.318;2023-07-24T02:42:13;94663.22;;;20.61;84.97
6150;BME280;3106;42.670;23.318;2023-07-24T02:44:39;94672.94;;;20.59;84.63
6150;BME280;3106;42.670;23.318;2023-07-24T02:47:06;94672.94;;;20.59;84.91
6150;BME280;3106;42.670;23.318;2023-07-24T02:49:33;94674.50;;;20.60;84.93
6150;BME280;3106;42.670;23.318;2023-07-24T02:52:01;94686.13;;;20.60;84.69
6150;BME280;3106;42.670;23.318;2023-07-24T02:54:28;94680.69;;;20.64;84.58
6150;BME280;3106;42.670;23.318;2023-07-24T02:56:56;94670.19;;;20.66;84.35
6150;BME280;3106;42.670;23.318;2023-07-24T02:59:23;94670.19;;;20.66;83.34
6150;BME280;3106;42.670;23.318;2023-07-24T03:01:50;94671.00;;;20.63;83.24
6150;BME280;3106;42.670;23.318;2023-07-24T03:04:17;94671.34;;;20.65;83.32
6150;BME280;3106;42.670;23.318;2023-07-24T03:06:43;94662.03;;;20.66;82.37
6150;BME280;3106;42.670;23.318;2023-07-24T03:09:12;94664.34;;;20.67;82.42
6150;BME280;3106;42.670;23.318;2023-07-24T03:11:38;94660.06;;;20.66;82.33
6150;BME280;3106;42.670;23.318;2023-07-24T03:14:05;94660.50;;;20.65;82.07
6150;BME280;3106;42.670;23.318;2023-07-24T03:16:32;94667.84;;;20.68;82.17
6150;BME280;3106;42.670;23.318;2023-07-24T03:18:59;94665.19;;;20.61;82.11
6150;BME280;3106;42.670;23.318;2023-07-24T03:21:26;94663.97;;;20.65;82.51
6150;BME280;3106;42.670;23.318;2023-07-24T03:23:52;94667.47;;;20.66;82.29
6150;BME280;3106;42.670;23.318;2023-07-24T03:26:21;94667.03;;;20.71;81.76
6150;BME280;3106;42.670;23.318;2023-07-24T03:28:48;94665.19;;;20.61;82.95
6150;BME280;3106;42.670;23.318;2023-07-24T03:31:14;94667.91;;;20.57;83.59
6150;BME280;3106;42.670;23.318;2023-07-24T03:33:41;94674.13;;;20.54;84.19
6150;BME280;3106;42.670;23.318;2023-07-24T03:36:10;94675.75;;;20.48;84.64
6150;BME280;3106;42.670;23.318;2023-07-24T03:38:36;94675.38;;;20.43;85.34
6150;BME280;3106;42.670;23.318;2023-07-24T03:41:03;94673.13;;;20.31;85.53
6150;BME280;3106;42.670;23.318;2023-07-24T03:43:31;94677.03;;;20.26;86.38
6150;BME280;3106;42.670;23.318;2023-07-24T03:45:58;94673.16;;;20.24;86.20
6150;BME280;3106;42.670;23.318;2023-07-24T03:48:25;94677.81;;;20.27;85.94
6150;BME280;3106;42.670;23.318;2023-07-24T03:50:57;94674.31;;;20.26;85.67
6150;BME280;3106;42.670;23.318;2023-07-24T03:53:25;94679.34;;;20.28;85.97
6150;BME280;3106;42.670;23.318;2023-07-24T03:55:52;94678.56;;;20.27;86.28
6150;BME280;3106;42.670;23.318;2023-07-24T03:58:19;94672.00;;;20.21;86.23
6150;BME280;3106;42.670;23.318;2023-07-24T04:00:47;94678.59;;;20.24;85.62
6150;BME280;3106;42.670;23.318;2023-07-24T04:03:14;94677.44;;;20.25;86.19
6150;BME280;3106;42.670;23.318;2023-07-24T04:05:40;94677.81;;;20.27;86.72
6150;BME280;3106;42.670;23.318;2023-07-24T04:08:07;94675.47;;;20.22;86.19
6150;BME280;3106;42.670;23.318;2023-07-24T04:10:34;94685.16;;;20.23;85.46
6150;BME280;3106;42.670;23.318;2023-07-24T04:13:01;94691.75;;;20.29;83.63
6150;BME280;3106;42.670;23.318;2023-07-24T04:15:31;94696.34;;;20.35;84.68
6150;BME280;3106;42.670;23.318;2023-07-24T04:17:59;94698.25;;;20.45;83.88
6150;BME280;3106;42.670;23.318;2023-07-24T04:20:26;94685.00;;;20.54;83.55
6150;BME280;3106;42.670;23.318;2023-07-24T04:22:52;94698.47;;;20.72;78.43
6150;BME280;3106;42.670;23.318;2023-07-24T04:25:19;94692.25;;;20.75;77.17
6150;BME280;3106;42.670;23.318;2023-07-24T04:27:46;94698.41;;;20.86;76.10
6150;BME280;3106;42.670;23.318;2023-07-24T04:30:13;94699.50;;;20.95;72.89
6150;BME280;3106;42.670;23.318;2023-07-24T04:32:40;94698.25;;;21.03;72.08
6150;BME280;3106;42.670;23.318;2023-07-24T04:35:09;94698.91;;;21.18;70.94
6150;BME280;3106;42.670;23.318;2023-07-24T04:37:36;94700.38;;;21.29;69.24
6150;BME280;3106;42.670;23.318;2023-07-24T04:40:03;94701.03;;;21.40;68.80
6150;BME280;3106;42.670;23.318;2023-07-24T04:42:30;94701.75;;;21.47;68.45
6150;BME280;3106;42.670;23.318;2023-07-24T04:44:57;94697.03;;;21.55;67.29
6150;BME280;3106;42.670;23.318;2023-07-24T04:47:24;94702.00;;;21.63;67.66
6150;BME280;3106;42.670;23.318;2023-07-24T04:49:51;94703.06;;;21.73;68.11
6150;BME280;3106;42.670;23.318;2023-07-24T04:52:19;94697.50;;;21.83;67.39
6150;BME280;3106;42.670;23.318;2023-07-24T04:54:46;94699.06;;;21.84;65.66
6150;BME280;3106;42.670;23.318;2023-07-24T04:57:13;94700.94;;;21.91;67.09
6150;BME280;3106;42.670;23.318;2023-07-24T04:59:39;94701.16;;;22.03;67.10
6150;BME280;3106;42.670;23.318;2023-07-24T05:02:06;94701.09;;;22.10;68.63
6150;BME280;3106;42.670;23.318;2023-07-24T05:04:33;94716.97;;;22.15;68.10
6150;BME280;3106;42.670;23.318;2023-07-24T05:07:01;94712.63;;;22.21;67.96
6150;BME280;3106;42.670;23.318;2023-07-24T05:09:33;94703.19;;;22.29;68.66
6150;BME280;3106;42.670;23.318;2023-07-24T05:12:00;94700.75;;;22.38;69.08
6150;BME280;3106;42.670;23.318;2023-07-24T05:14:27;94693.16;;;22.53;68.76
6150;BME280;3106;42.670;23.318;2023-07-24T05:16:54;94710.50;;;22.66;69.45
6150;BME280;3106;42.670;23.318;2023-07-24T05:19:22;94707.09;;;22.58;69.86
6150;BME280;3106;42.670;23.318;2023-07-24T05:21:48;94693.16;;;22.53;69.91
6150;BME280;3106;42.670;23.318;2023-07-24T05:24:16;94706.53;;;22.70;69.62
6150;BME280;3106;42.670;23.318;2023-07-24T05:26:44;94706.44;;;22.77;69.13
6150;BME280;3106;42.670;23.318;2023-07-24T05:29:10;94706.72;;;22.86;68.18
6150;BME280;3106;42.670;23.318;2023-07-24T05:31:38;94701.34;;;23.05;67.21
6150;BME280;3106;42.670;23.318;2023-07-24T05:34:04;94702.25;;;24.65;61.47
6150;BME280;3106;42.670;23.318;2023-07-24T05:36:32;94707.22;;;26.54;55.12
6150;BME280;3106;42.670;23.318;2023-07-24T05:38:58;94716.16;;;28.26;49.68
6150;BME280;3106;42.670;23.318;2023-07-24T05:41:25;94712.09;;;29.43;45.56
6150;BME280;3106;42.670;23.318;2023-07-24T05:43:53;94708.53;;;30.00;44.07
6150;BME280;3106;42.670;23.318;2023-07-24T05:46:21;94709.78;;;30.26;42.83
6150;BME280;3106;42.670;23.318;2023-07-24T05:48:48;94714.66;;;30.76;41.91
6150;BME280;3106;42.670;23.318;2023-07-24T05:51:15;94706.31;;;31.76;40.17
6150;BME280;3106;42.670;23.318;2023-07-24T05:53:42;94704.88;;;32.28;37.98
6150;BME280;3106;42.670;23.318;2023-07-24T05:56:09;94706.75;;;32.60;37.57
6150;BME280;3106;42.670;23.318;2023-07-24T05:58:36;94710.88;;;32.93;36.09
6150;BME280;3106;42.670;23.318;2023-07-24T06:01:04;94709.72;;;33.14;35.56
6150;BME280;3106;42.670;23.318;2023-07-24T06:03:33;94697.13;;;32.98;35.41
6150;BME280;3106;42.670;23.318;2023-07-24T06:06:00;94700.78;;;32.38;36.33
6150;BME280;3106;42.670;23.318;2023-07-24T06:08:27;94701.66;;;32.58;36.17
6150;BME280;3106;42.670;23.318;2023-07-24T06:10:54;94699.53;;;33.20;35.77
6150;BME280;3106;42.670;23.318;2023-07-24T06:13:20;94701.16;;;33.95;34.34
6150;BME280;3106;42.670;23.318;2023-07-24T06:15:48;94699.13;;;34.81;33.83
6150;BME280;3106;42.670;23.318;2023-07-24T06:18:16;94696.97;;;35.52;31.88
6150;BME280;3106;42.670;23.318;2023-07-24T06:20:43;94698.81;;;35.30;32.58
6150;BME280;3106;42.670;23.318;2023-07-24T06:23:10;94697.72;;;35.53;32.28
6150;BME280;3106;42.670;23.318;2023-07-24T06:25:38;94695.38;;;35.40;32.54
6150;BME280;3106;42.670;23.318;2023-07-24T06:28:05;94700.63;;;35.07;32.86
6150;BME280;3106;42.670;23.318;2023-07-24T06:30:32;94700.09;;;35.03;33.40
6150;BME280;3106;42.670;23.318;2023-07-24T06:32:58;94694.03;;;35.30;33.11
6150;BME280;3106;42.670;23.318;2023-07-24T06:35:27;94697.50;;;34.94;33.21
6150;BME280;3106;42.670;23.318;2023-07-24T06:37:54;94695.53;;;35.00;33.54
6150;BME280;3106;42.670;23.318;2023-07-24T06:40:21;94688.56;;;34.85;33.83
6150;BME280;3106;42.670;23.318;2023-07-24T06:42:48;94687.06;;;33.79;35.70
6150;BME280;3106;42.670;23.318;2023-07-24T06:45:15;94687.00;;;33.10;36.95
6150;BME280;3106;42.670;23.318;2023-07-24T06:47:42;94687.66;;;33.05;37.21
6150;BME280;3106;42.670;23.318;2023-07-24T06:50:09;94692.78;;;32.54;38.14
6150;BME280;3106;42.670;23.318;2023-07-24T06:52:37;94682.19;;;31.77;39.42
6150;BME280;3106;42.670;23.318;2023-07-24T06:55:04;94688.22;;;31.90;39.71
6150;BME280;3106;42.670;23.318;2023-07-24T06:57:32;94694.41;;;32.08;39.07
6150;BME280;3106;42.670;23.318;2023-07-24T06:59:58;94689.75;;;31.91;40.08
6150;BME280;3106;42.670;23.318;2023-07-24T07:02:25;94693.41;;;31.97;39.26
6150;BME280;3106;42.670;23.318;2023-07-24T07:04:53;94689.69;;;32.00;39.26
6150;BME280;3106;42.670;23.318;2023-07-24T07:07:21;94692.72;;;32.63;38.58
6150;BME280;3106;42.670;23.318;2023-07-24T07:09:49;94700.19;;;33.29;37.65
6150;BME280;3106;42.670;23.318;2023-07-24T07:12:16;94697.59;;;33.11;37.37
6150;BME280;3106;42.670;23.318;2023-07-24T07:14:43;94694.81;;;32.97;37.37
6150;BME280;3106;42.670;23.318;2023-07-24T07:17:09;94686.63;;;32.88;38.09
6150;BME280;3106;42.670;23.318;2023-07-24T07:19:36;94690.28;;;31.24;40.42
6150;BME280;3106;42.670;23.318;2023-07-24T07:22:04;94679.31;;;30.98;40.74
6150;BME280;3106;42.670;23.318;2023-07-24T07:24:30;94676.16;;;30.81;41.73
6150;BME280;3106;42.670;23.318;2023-07-24T07:26:59;94668.75;;;30.10;42.49
6150;BME280;3106;42.670;23.318;2023-07-24T07:29:25;94673.28;;;29.77;43.69
6150;BME280;3106;42.670;23.318;2023-07-24T07:31:52;94675.22;;;29.50;44.19
6150;BME280;3106;42.670;23.318;2023-07-24T07:34:19;94674.53;;;29.28;44.39
6150;BME280;3106;42.670;23.318;2023-07-24T07:36:46;94669.53;;;29.35;44.40
6150;BME280;3106;42.670;23.318;2023-07-24T07:39:13;94671.63;;;29.31;44.53
6150;BME280;3106;42.670;23.318;2023-07-24T07:41:39;94654.66;;;29.42;44.30
6150;BME280;3106;42.670;23.318;2023-07-24T07:44:08;94660.69;;;29.58;43.98
6150;BME280;3106;42.670;23.318;2023-07-24T07:46:38;94661.00;;;29.51;43.71
6150;BME280;3106;42.670;23.318;2023-07-24T07:49:05;94662.19;;;29.41;43.56
6150;BME280;3106;42.670;23.318;2023-07-24T07:51:32;94666.38;;;29.72;43.43
6150;BME280;3106;42.670;23.318;2023-07-24T07:53:59;94675.78;;;30.11;42.38
6150;BME280;3106;42.670;23.318;2023-07-24T07:56:25;94669.78;;;30.21;41.64
6150;BME280;3106;42.670;23.318;2023-07-24T07:58:52;94672.38;;;30.34;41.44
6150;BME280;3106;42.670;23.318;2023-07-24T08:01:21;94670.09;;;30.23;41.77
6150;BME280;3106;42.670;23.318;2023-07-24T08:03:47;94671.78;;;30.21;41.67
6150;BME280;3106;42.670;23.318;2023-07-24T08:06:14;94666.28;;;30.03;41.95
6150;BME280;3106;42.670;23.318;2023-07-24T08:08:41;94668.75;;;30.10;42.01
6150;BME280;3106;42.670;23.318;2023-07-24T08:11:08;94673.59;;;30.33;41.70
6150;BME280;3106;42.670;23.318;2023-07-24T08:13:35;94676.03;;;30.40;41.36
6150;BME280;3106;42.670;23.318;2023-07-24T08:16:02;94660.72;;;30.48;42.00
6150;BME280;3106;42.670;23.318;2023-07-24T08:18:30;94655.34;;;30.44;41.81
6150;BME280;3106;42.670;23.318;2023-07-24T08:20:57;94657.34;;;30.62;41.44
6150;BME280;3106;42.670;23.318;2023-07-24T08:23:24;94654.56;;;30.62;41.22
6150;BME280;3106;42.670;23.318;2023-07-24T08:25:52;94647.66;;;30.57;41.36
6150;BME280;3106;42.670;23.318;2023-07-24T08:28:19;94652.72;;;30.68;41.48
6150;BME280;3106;42.670;23.318;2023-07-24T08:30:46;94648.38;;;30.76;40.63
6150;BME280;3106;42.670;23.318;2023-07-24T08:33:13;94648.97;;;30.80;40.62
6150;BME280;3106;42.670;23.318;2023-07-24T08:35:41;94644.53;;;30.82;40.04
6150;BME280;3106;42.670;23.318;2023-07-24T08:38:08;94635.91;;;30.89;40.22
6150;BME280;3106;42.670;23.318;2023-07-24T08:40:35;94637.25;;;31.03;39.98
6150;BME280;3106;42.670;23.318;2023-07-24T08:43:02;94639.03;;;31.23;40.51
6150;BME280;3106;42.670;23.318;2023-07-24T08:45:30;94632.44;;;31.44;40.84
6150;BME280;3106;42.670;23.318;2023-07-24T08:47:58;94635.97;;;31.45;41.07
6150;BME280;3106;42.670;23.318;2023-07-24T08:50:26;94631.25;;;31.36;40.80
6150;BME280;3106;42.670;23.318;2023-07-24T08:52:56;94628.31;;;31.08;40.36
6150;BME280;3106;42.670;23.318;2023-07-24T08:55:24;94636.91;;;31.19;41.00
6150;BME280;3106;42.670;23.318;2023-07-24T08:57:52;94633.50;;;31.23;40.03
6150;BME280;3106;42.670;23.318;2023-07-24T09:00:19;94632.44;;;31.44;39.83
6150;BME280;3106;42.670;23.318;2023-07-24T09:02:46;94623.75;;;31.60;39.51
6150;BME280;3106;42.670;23.318;2023-07-24T09:05:13;94629.66;;;31.44;38.73
6150;BME280;3106;42.670;23.318;2023-07-24T09:07:42;94627.28;;;30.96;39.23
6150;BME280;3106;42.670;23.318;2023-07-24T09:10:13;94621.13;;;30.69;39.56
6150;BME280;3106;42.670;23.318;2023-07-24T09:12:41;94628.75;;;30.74;39.92
6150;BME280;3106;42.670;23.318;2023-07-24T09:15:09;94629.84;;;31.18;39.16
6150;BME280;3106;42.670;23.318;2023-07-24T09:17:36;94627.09;;;31.41;38.48
6150;BME280;3106;42.670;23.318;2023-07-24T09:20:13;94622.81;;;31.63;37.42
6150;BME280;3106;42.670;23.318;2023-07-24T09:22:48;94624.78;;;31.72;37.60
6150;BME280;3106;42.670;23.318;2023-07-24T09:25:16;94614.31;;;31.90;37.03
6150;BME280;3106;42.670;23.318;2023-07-24T09:27:44;94629.38;;;31.89;37.01
6150;BME280;3106;42.670;23.318;2023-07-24T09:30:12;94607.84;;;32.08;36.60
6150;BME280;3106;42.670;23.318;2023-07-24T09:32:40;94600.44;;;31.52;37.74
6150;BME280;3106;42.670;23.318;2023-07-24T09:35:16;94606.56;;;31.56;36.97
6150;BME280;3106;42.670;23.318;2023-07-24T09:37:44;94596.03;;;31.46;37.21
6150;BME280;3106;42.670;23.318;2023-07-24T09:40:13;94595.69;;;31.29;38.41
6150;BME280;3106;42.670;23.318;2023-07-24T09:42:42;94594.25;;;31.81;36.87
6150;BME280;3106;42.670;23.318;2023-07-24T09:45:09;94572.94;;;32.10;36.41
6150;BME280;3106;42.670;23.318;2023-07-24T09:47:37;94574.28;;;32.44;35.91
6150;BME280;3106;42.670;23.318;2023-07-24T09:50:06;94582.31;;;32.56;34.95
6150;BME280;3106;42.670;23.318;2023-07-24T09:52:35;94567.59;;;32.65;35.20
6150;BME280;3106;42.670;23.318;2023-07-24T09:55:10;94566.75;;;32.44;34.27
6150;BME280;3106;42.670;23.318;2023-07-24T09:57:37;94566.75;;;32.44;35.25
6150;BME280;3106;42.670;23.318;2023-07-24T10:00:07;94567.53;;;32.30;34.81
6150;BME280;3106;42.670;23.318;2023-07-24T10:02:35;94565.34;;;32.49;34.29
6150;BME280;3106;42.670;23.318;2023-07-24T10:05:03;94560.94;;;32.71;34.54
6150;BME280;3106;42.670;23.318;2023-07-24T10:07:31;94557.94;;;32.89;33.71
6150;BME280;3106;42.670;23.318;2023-07-24T10:09:58;94552.75;;;32.96;32.73
6150;BME280;3106;42.670;23.318;2023-07-24T10:12:25;94557.09;;;32.54;33.41
6150;BME280;3106;42.670;23.318;2023-07-24T10:14:55;94550.25;;;32.50;33.39
6150;BME280;3106;42.670;23.318;2023-07-24T10:17:37;94553.47;;;32.77;33.96
6150;BME280;3106;42.670;23.318;2023-07-24T10:20:05;94547.31;;;33.02;33.71
6150;BME280;3106;42.670;23.318;2023-07-24T10:22:33;94547.91;;;33.26;33.33
6150;BME280;3106;42.670;23.318;2023-07-24T10:25:00;94537.16;;;33.53;33.06
6150;BME280;3106;42.670;23.318;2023-07-24T10:27:27;94534.94;;;33.57;32.88
6150;BME280;3106;42.670;23.318;2023-07-24T10:30:00;94534.25;;;33.62;32.53
6150;BME280;3106;42.670;23.318;2023-07-24T10:32:28;94530.38;;;33.74;32.82
6150;BME280;3106;42.670;23.318;2023-07-24T10:35:06;94520.25;;;33.71;33.51
6150;BME280;3106;42.670;23.318;2023-07-24T10:37:34;94532.34;;;33.94;33.57
6150;BME280;3106;42.670;23.318;2023-07-24T10:40:01;94532.56;;;34.16;33.01
6150;BME280;3106;42.670;23.318;2023-07-24T10:42:29;94521.22;;;33.68;34.07
6150;BME280;3106;42.670;23.318;2023-07-24T10:45:08;94508.03;;;33.63;33.50
6150;BME280;3106;42.670;23.318;2023-07-24T10:47:36;94519.34;;;33.80;33.85
6150;BME280;3106;42.670;23.318;2023-07-24T10:50:07;94524.75;;;33.49;34.04
6150;BME280;3106;42.670;23.318;2023-07-24T10:52:34;94514.16;;;32.93;34.58
6150;BME280;3106;42.670;23.318;2023-07-24T10:55:02;94509.50;;;33.19;34.23
6150;BME280;3106;42.670;23.318;2023-07-24T10:57:29;94499.41;;;33.36;33.97
6150;BME280;3106;42.670;23.318;2023-07-24T10:59:56;94504.34;;;33.72;33.32
6150;BME280;3106;42.670;23.318;2023-07-24T11:02:23;94512.84;;;33.88;33.68
6150;BME280;3106;42.670;23.318;2023-07-24T11:04:50;94512.19;;;34.19;32.41
6150;BME280;3106;42.670;23.318;2023-07-24T11:07:18;94505.97;;;34.29;31.80
6150;BME280;3106;42.670;23.318;2023-07-24T11:09:45;94506.59;;;34.44;31.55
6150;BME280;3106;42.670;23.318;2023-07-24T11:12:14;94509.22;;;34.58;31.30
6150;BME280;3106;42.670;23.318;2023-07-24T11:14:51;94486.88;;;34.73;30.61
6150;BME280;3106;42.670;23.318;2023-07-24T11:17:19;94487.47;;;34.82;31.31
6150;BME280;3106;42.670;23.318;2023-07-24T11:19:46;94490.03;;;34.91;31.38
6150;BME280;3106;42.670;23.318;2023-07-24T11:22:14;94498.47;;;34.66;30.92
6150;BME280;3106;42.670;23.318;2023-07-24T11:24:46;94490.84;;;34.36;31.43
6150;BME280;3106;42.670;23.318;2023-07-24T11:27:14;94477.78;;;34.42;31.97
6150;BME280;3106;42.670;23.318;2023-07-24T11:29:41;94474.88;;;34.25;31.73
6150;BME280;3106;42.670;23.318;2023-07-24T11:32:08;94466.81;;;34.63;31.37
6150;BME280;3106;42.670;23.318;2023-07-24T11:34:35;94470.97;;;34.73;31.69
6150;BME280;3106;42.670;23.318;2023-07-24T11:37:03;94467.38;;;34.37;31.53
6150;BME280;3106;42.670;23.318;2023-07-24T11:39:30;94470.28;;;34.22;31.82
6150;BME280;3106;42.670;23.318;2023-07-24T11:41:59;94466.28;;;34.23;32.17
6150;BME280;3106;42.670;23.318;2023-07-24T11:44:27;94448.72;;;33.61;33.50
6150;BME280;3106;42.670;23.318;2023-07-24T11:47:00;94452.13;;;33.25;34.61
6150;BME280;3106;42.670;23.318;2023-07-24T11:49:28;94453.16;;;33.27;35.14
6150;BME280;3106;42.670;23.318;2023-07-24T11:52:00;94438.22;;;33.19;34.73
6150;BME280;3106;42.670;23.318;2023-07-24T11:54:27;94453.63;;;32.86;35.12
6150;BME280;3106;42.670;23.318;2023-07-24T11:56:54;94439.28;;;32.88;35.20
6150;BME280;3106;42.670;23.318;2023-07-24T11:59:24;94443.25;;;33.01;35.41
6150;BME280;3106;42.670;23.318;2023-07-24T12:01:51;94442.44;;;32.81;35.56
6150;BME280;3106;42.670;23.318;2023-07-24T12:04:18;94434.84;;;32.95;35.46
6150;BME280;3106;42.670;23.318;2023-07-24T12:06:46;94433.00;;;33.27;35.08
6150;BME280;3106;42.670;23.318;2023-07-24T12:09:13;94450.31;;;33.22;35.83
6150;BME280;3106;42.670;23.318;2023-07-24T12:11:40;94442.97;;;33.39;35.16
6150;BME280;3106;42.670;23.318;2023-07-24T12:14:07;94441.66;;;33.60;34.54
6150;BME280;3106;42.670;23.318;2023-07-24T12:16:36;94446.16;;;33.77;34.28
6150;BME280;3106;42.670;23.318;2023-07-24T12:19:02;94434.19;;;33.91;33.87
6150;BME280;3106;42.670;23.318;2023-07-24T12:21:29;94435.22;;;33.94;34.51
6150;BME280;3106;42.670;23.318;2023-07-24T12:23:56;94428.81;;;33.17;33.23
6150;BME280;3106;42.670;23.318;2023-07-24T12:26:23;94438.69;;;33.18;35.00
6150;BME280;3106;42.670;23.318;2023-07-24T12:28:53;94437.16;;;33.62;34.71
6150;BME280;3106;42.670;23.318;2023-07-24T12:31:20;94429.75;;;34.05;34.09
6150;BME280;3106;42.670;23.318;2023-07-24T12:33:48;94435.47;;;33.96;33.65
6150;BME280;3106;42.670;23.318;2023-07-24T12:36:15;94418.63;;;33.99;33.53
6150;BME280;3106;42.670;23.318;2023-07-24T12:38:42;94421.69;;;33.76;33.79
6150;BME280;3106;42.670;23.318;2023-07-24T12:41:10;94427.41;;;33.92;33.61
6150;BME280;3106;42.670;23.318;2023-07-24T12:43:37;94419.41;;;34.05;33.22
6150;BME280;3106;42.670;23.318;2023-07-24T12:46:04;94408.50;;;33.96;32.67
6150;BME280;3106;42.670;23.318;2023-07-24T12:48:31;94405.75;;;34.33;31.59
6150;BME280;3106;42.670;23.318;2023-07-24T12:50:59;94403.03;;;34.38;32.21
6150;BME280;3106;42.670;23.318;2023-07-24T12:53:26;94414.38;;;34.76;31.81
6150;BME280;3106;42.670;23.318;2023-07-24T12:55:53;94418.84;;;35.05;30.29
6150;BME280;3106;42.670;23.318;2023-07-24T12:58:20;94412.88;;;35.28;30.31
6150;BME280;3106;42.670;23.318;2023-07-24T13:00:47;94405.56;;;35.36;30.51
6150;BME280;3106;42.670;23.318;2023-07-24T13:03:14;94405.28;;;35.29;31.46
6150;BME280;3106;42.670;23.318;2023-07-24T13:05:41;94398.97;;;34.70;32.01
6150;BME280;3106;42.670;23.318;2023-07-24T13:08:10;94398.75;;;34.06;32.15
6150;BME280;3106;42.670;23.318;2023-07-24T13:10:36;94397.09;;;34.20;32.35
6150;BME280;3106;42.670;23.318;2023-07-24T13:13:03;94396.25;;;34.45;31.72